sensor_id;sensor_type;location;lat;lon;timestamp;P1;durP1;ratioP1;P2;durP2;ratioP2
18544;SDS011;9402;51.460;7.276;2023-05-07T00:01:46;5.57;;;3.93;;
18544;SDS011;9402;51.460;7.276;2023-05-07T00:03:48;4.83;;;4.33;;
18544;SDS011;9402;51.460;7.276;2023-05-07T00:05:49;4.47;;;4.07;;
18544;SDS011;9402;51.460;7.276;2023-05-07T00:07:52;3.97;;;3.67;;
18544;SDS011;9402;51.460;7.276;2023-05-07T00:09:54;6.27;;;4.37;;
18544;SDS011;9402;51.460;7.276;2023-05-07T00:11:56;5.80;;;4.27;;
18544;SDS011;9402;51.460;7.276;2023-05-07T00:13:59;4.37;;;3.97;;
18544;SDS011;9402;51.460;7.276;2023-05-07T00:16:01;7.70;;;5.03;;
18544;SDS011;9402;51.460;7.276;2023-05-07T00:18:02;5.87;;;4.57;;
18544;SDS011;9402;51.460;7.276;2023-05-07T00:20:04;5.10;;;4.60;;
18544;SDS011;9402;51.460;7.276;2023-05-07T00:22:07;6.07;;;4.83;;
18544;SDS011;9402;51.460;7.276;2023-05-07T00:24:09;7.40;;;4.77;;
18544;SDS011;9402;51.460;7.276;2023-05-07T00:26:11;5.80;;;4.30;;
18544;SDS011;9402;51.460;7.276;2023-05-07T00:28:12;5.80;;;5.20;;
18544;SDS011;9402;51.460;7.276;2023-05-07T00:30:15;4.93;;;4.07;;
18544;SDS011;9402;51.460;7.276;2023-05-07T00:32:17;5.57;;;4.30;;
18544;SDS011;9402;51.460;7.276;2023-05-07T00:34:19;12.33;;;4.43;;
18544;SDS011;9402;51.460;7.276;2023-05-07T00:36:21;7.63;;;4.90;;
18544;SDS011;9402;51.460;7.276;2023-05-07T00:38:22;8.17;;;4.33;;
18544;SDS011;9402;51.460;7.276;2023-05-07T00:40:24;15.93;;;4.57;;
18544;SDS011;9402;51.460;7.276;2023-05-07T00:42:25;4.57;;;4.13;;
18544;SDS011;9402;51.460;7.276;2023-05-07T00:44:27;5.90;;;3.90;;
18544;SDS011;9402;51.460;7.276;2023-05-07T00:46:31;4.30;;;3.80;;
18544;SDS011;9402;51.460;7.276;2023-05-07T00:48:33;5.23;;;3.97;;
18544;SDS011;9402;51.460;7.276;2023-05-07T00:50:35;6.33;;;4.57;;
18544;SDS011;9402;51.460;7.276;2023-05-07T00:52:36;8.73;;;4.33;;
18544;SDS011;9402;51.460;7.276;2023-05-07T00:54:38;5.07;;;4.50;;
18544;SDS011;9402;51.460;7.276;2023-05-07T00:56:41;4.80;;;3.83;;
18544;SDS011;9402;51.460;7.276;2023-05-07T00:58:43;4.83;;;4.43;;
18544;SDS011;9402;51.460;7.276;2023-05-07T01:00:45;4.83;;;4.37;;
18544;SDS011;9402;51.460;7.276;2023-05-07T01:02:48;5.27;;;4.77;;
18544;SDS011;9402;51.460;7.276;2023-05-07T01:04:49;6.97;;;4.50;;
18544;SDS011;9402;51.460;7.276;2023-05-07T01:06:51;6.30;;;4.57;;
18544;SDS011;9402;51.460;7.276;2023-05-07T01:08:53;7.53;;;4.77;;
18544;SDS011;9402;51.460;7.276;2023-05-07T01:10:56;5.03;;;4.13;;
18544;SDS011;9402;51.460;7.276;2023-05-07T01:12:58;13.87;;;4.40;;
18544;SDS011;9402;51.460;7.276;2023-05-07T01:15:00;5.27;;;4.37;;
18544;SDS011;9402;51.460;7.276;2023-05-07T01:17:02;8.70;;;4.57;;
18544;SDS011;9402;51.460;7.276;2023-05-07T01:19:05;7.17;;;4.90;;
18544;SDS011;9402;51.460;7.276;2023-05-07T01:21:06;6.83;;;4.60;;
18544;SDS011;9402;51.460;7.276;2023-05-07T01:23:11;9.10;;;5.07;;
18544;SDS011;9402;51.460;7.276;2023-05-07T01:25:12;10.03;;;5.23;;
18544;SDS011;9402;51.460;7.276;2023-05-07T01:27:16;9.00;;;5.43;;
18544;SDS011;9402;51.460;7.276;2023-05-07T01:29:17;7.40;;;6.03;;
18544;SDS011;9402;51.460;7.276;2023-05-07T01:31:19;5.30;;;4.80;;
18544;SDS011;9402;51.460;7.276;2023-05-07T01:33:21;6.67;;;5.50;;
18544;SDS011;9402;51.460;7.276;2023-05-07T01:35:24;9.77;;;6.33;;
18544;SDS011;9402;51.460;7.276;2023-05-07T01:37:28;6.87;;;6.17;;
18544;SDS011;9402;51.460;7.276;2023-05-07T01:39:31;9.73;;;7.10;;
18544;SDS011;9402;51.460;7.276;2023-05-07T01:41:33;9.87;;;7.10;;
18544;SDS011;9402;51.460;7.276;2023-05-07T01:43:35;8.80;;;6.67;;
18544;SDS011;9402;51.460;7.276;2023-05-07T01:45:36;10.43;;;7.93;;
18544;SDS011;9402;51.460;7.276;2023-05-07T01:47:39;8.20;;;7.30;;
18544;SDS011;9402;51.460;7.276;2023-05-07T01:49:41;10.83;;;7.70;;
18544;SDS011;9402;51.460;7.276;2023-05-07T01:51:43;7.97;;;6.47;;
18544;SDS011;9402;51.460;7.276;2023-05-07T01:53:45;11.70;;;7.23;;
18544;SDS011;9402;51.460;7.276;2023-05-07T01:55:52;10.33;;;8.20;;
18544;SDS011;9402;51.460;7.276;2023-05-07T01:57:53;13.57;;;8.73;;
18544;SDS011;9402;51.460;7.276;2023-05-07T01:59:55;9.30;;;7.27;;
18544;SDS011;9402;51.460;7.276;2023-05-07T02:01:56;11.43;;;8.20;;
18544;SDS011;9402;51.460;7.276;2023-05-07T02:03:58;10.80;;;8.47;;
18544;SDS011;9402;51.460;7.276;2023-05-07T02:05:59;15.77;;;9.90;;
18544;SDS011;9402;51.460;7.276;2023-05-07T02:08:01;11.23;;;9.90;;
18544;SDS011;9402;51.460;7.276;2023-05-07T02:10:03;12.60;;;10.90;;
18544;SDS011;9402;51.460;7.276;2023-05-07T02:12:06;11.00;;;9.90;;
18544;SDS011;9402;51.460;7.276;2023-05-07T02:14:08;12.50;;;9.97;;
18544;SDS011;9402;51.460;7.276;2023-05-07T02:16:10;11.50;;;9.80;;
18544;SDS011;9402;51.460;7.276;2023-05-07T02:18:13;11.10;;;9.10;;
18544;SDS011;9402;51.460;7.276;2023-05-07T02:20:15;11.47;;;9.93;;
18544;SDS011;9402;51.460;7.276;2023-05-07T02:22:16;12.57;;;10.10;;
18544;SDS011;9402;51.460;7.276;2023-05-07T02:24:18;15.30;;;10.07;;
18544;SDS011;9402;51.460;7.276;2023-05-07T02:26:20;13.30;;;10.00;;
18544;SDS011;9402;51.460;7.276;2023-05-07T02:28:23;12.13;;;9.90;;
18544;SDS011;9402;51.460;7.276;2023-05-07T02:30:25;8.13;;;6.57;;
18544;SDS011;9402;51.460;7.276;2023-05-07T02:32:27;8.60;;;6.73;;
18544;SDS011;9402;51.460;7.276;2023-05-07T02:34:28;7.97;;;7.17;;
18544;SDS011;9402;51.460;7.276;2023-05-07T02:36:30;6.70;;;6.13;;
18544;SDS011;9402;51.460;7.276;2023-05-07T02:38:32;11.40;;;7.47;;
18544;SDS011;9402;51.460;7.276;2023-05-07T02:40:33;12.20;;;7.27;;
18544;SDS011;9402;51.460;7.276;2023-05-07T02:42:38;8.43;;;7.60;;
18544;SDS011;9402;51.460;7.276;2023-05-07T02:44:41;9.90;;;7.73;;
18544;SDS011;9402;51.460;7.276;2023-05-07T02:46:43;12.70;;;7.57;;
18544;SDS011;9402;51.460;7.276;2023-05-07T02:48:44;12.10;;;7.80;;
18544;SDS011;9402;51.460;7.276;2023-05-07T02:50:46;8.13;;;7.17;;
18544;SDS011;9402;51.460;7.276;2023-05-07T02:52:47;8.20;;;7.37;;
18544;SDS011;9402;51.460;7.276;2023-05-07T02:54:49;9.77;;;6.53;;
18544;SDS011;9402;51.460;7.276;2023-05-07T02:56:51;11.80;;;7.37;;
18544;SDS011;9402;51.460;7.276;2023-05-07T02:58:52;8.23;;;7.30;;
18544;SDS011;9402;51.460;7.276;2023-05-07T03:00:55;11.50;;;8.40;;
18544;SDS011;9402;51.460;7.276;2023-05-07T03:02:57;12.50;;;8.47;;
18544;SDS011;9402;51.460;7.276;2023-05-07T03:04:58;8.50;;;7.60;;
18544;SDS011;9402;51.460;7.276;2023-05-07T03:07:00;9.80;;;7.90;;
18544;SDS011;9402;51.460;7.276;2023-05-07T03:09:01;12.87;;;7.67;;
18544;SDS011;9402;51.460;7.276;2023-05-07T03:11:03;9.27;;;8.27;;
18544;SDS011;9402;51.460;7.276;2023-05-07T03:13:05;8.80;;;7.90;;
18544;SDS011;9402;51.460;7.276;2023-05-07T03:15:07;8.70;;;7.80;;
18544;SDS011;9402;51.460;7.276;2023-05-07T03:17:11;8.37;;;6.90;;
18544;SDS011;9402;51.460;7.276;2023-05-07T03:19:13;10.27;;;8.10;;
18544;SDS011;9402;51.460;7.276;2023-05-07T03:21:14;7.93;;;7.13;;
18544;SDS011;9402;51.460;7.276;2023-05-07T03:23:16;22.57;;;8.93;;
18544;SDS011;9402;51.460;7.276;2023-05-07T03:25:17;8.83;;;8.03;;
18544;SDS011;9402;51.460;7.276;2023-05-07T03:27:19;15.93;;;11.73;;
18544;SDS011;9402;51.460;7.276;2023-05-07T03:29:20;13.83;;;11.13;;
18544;SDS011;9402;51.460;7.276;2023-05-07T03:31:22;16.37;;;11.10;;
18544;SDS011;9402;51.460;7.276;2023-05-07T03:33:25;13.07;;;10.53;;
18544;SDS011;9402;51.460;7.276;2023-05-07T03:35:27;14.20;;;10.83;;
18544;SDS011;9402;51.460;7.276;2023-05-07T03:37:28;14.67;;;11.00;;
18544;SDS011;9402;51.460;7.276;2023-05-07T03:39:30;16.87;;;11.87;;
18544;SDS011;9402;51.460;7.276;2023-05-07T03:41:32;13.47;;;12.07;;
18544;SDS011;9402;51.460;7.276;2023-05-07T03:43:33;16.03;;;12.73;;
18544;SDS011;9402;51.460;7.276;2023-05-07T03:45:35;16.43;;;13.53;;
18544;SDS011;9402;51.460;7.276;2023-05-07T03:47:37;19.17;;;15.20;;
18544;SDS011;9402;51.460;7.276;2023-05-07T03:49:39;19.43;;;16.97;;
18544;SDS011;9402;51.460;7.276;2023-05-07T03:51:41;21.20;;;18.80;;
18544;SDS011;9402;51.460;7.276;2023-05-07T03:53:43;26.97;;;18.87;;
18544;SDS011;9402;51.460;7.276;2023-05-07T03:55:44;20.23;;;17.40;;
18544;SDS011;9402;51.460;7.276;2023-05-07T03:57:46;19.93;;;17.07;;
18544;SDS011;9402;51.460;7.276;2023-05-07T03:59:47;20.70;;;18.20;;
18544;SDS011;9402;51.460;7.276;2023-05-07T04:01:49;26.07;;;20.40;;
18544;SDS011;9402;51.460;7.276;2023-05-07T04:03:51;29.23;;;19.97;;
18544;SDS011;9402;51.460;7.276;2023-05-07T04:05:53;22.17;;;19.40;;
18544;SDS011;9402;51.460;7.276;2023-05-07T04:07:55;21.33;;;19.03;;
18544;SDS011;9402;51.460;7.276;2023-05-07T04:09:57;22.83;;;17.90;;
18544;SDS011;9402;51.460;7.276;2023-05-07T04:11:58;19.23;;;15.93;;
18544;SDS011;9402;51.460;7.276;2023-05-07T04:14:01;17.30;;;15.50;;
18544;SDS011;9402;51.460;7.276;2023-05-07T04:16:03;20.97;;;18.63;;
18544;SDS011;9402;51.460;7.276;2023-05-07T04:18:05;26.70;;;21.07;;
18544;SDS011;9402;51.460;7.276;2023-05-07T04:20:08;23.27;;;20.30;;
18544;SDS011;9402;51.460;7.276;2023-05-07T04:22:12;22.40;;;20.07;;
18544;SDS011;9402;51.460;7.276;2023-05-07T04:24:14;23.17;;;20.37;;
18544;SDS011;9402;51.460;7.276;2023-05-07T04:26:15;22.73;;;20.33;;
18544;SDS011;9402;51.460;7.276;2023-05-07T04:28:17;24.70;;;21.10;;
18544;SDS011;9402;51.460;7.276;2023-05-07T04:30:19;25.63;;;20.17;;
18544;SDS011;9402;51.460;7.276;2023-05-07T04:32:21;23.27;;;20.53;;
18544;SDS011;9402;51.460;7.276;2023-05-07T04:34:22;28.63;;;21.23;;
18544;SDS011;9402;51.460;7.276;2023-05-07T04:36:24;25.30;;;21.60;;
18544;SDS011;9402;51.460;7.276;2023-05-07T04:38:28;21.47;;;19.17;;
18544;SDS011;9402;51.460;7.276;2023-05-07T04:40:30;24.30;;;20.77;;
18544;SDS011;9402;51.460;7.276;2023-05-07T04:42:32;22.80;;;20.40;;
18544;SDS011;9402;51.460;7.276;2023-05-07T04:44:33;26.53;;;19.83;;
18544;SDS011;9402;51.460;7.276;2023-05-07T04:46:37;24.03;;;21.10;;
18544;SDS011;9402;51.460;7.276;2023-05-07T04:48:38;26.80;;;19.67;;
18544;SDS011;9402;51.460;7.276;2023-05-07T04:50:40;23.93;;;19.90;;
18544;SDS011;9402;51.460;7.276;2023-05-07T04:52:41;25.00;;;21.00;;
18544;SDS011;9402;51.460;7.276;2023-05-07T04:54:44;23.13;;;20.70;;
18544;SDS011;9402;51.460;7.276;2023-05-07T04:56:46;22.90;;;19.83;;
18544;SDS011;9402;51.460;7.276;2023-05-07T04:58:47;23.33;;;20.97;;
18544;SDS011;9402;51.460;7.276;2023-05-07T05:00:49;20.60;;;18.40;;
18544;SDS011;9402;51.460;7.276;2023-05-07T05:02:50;20.83;;;18.60;;
18544;SDS011;9402;51.460;7.276;2023-05-07T05:04:52;22.63;;;16.93;;
18544;SDS011;9402;51.460;7.276;2023-05-07T05:06:53;19.30;;;16.63;;
18544;SDS011;9402;51.460;7.276;2023-05-07T05:08:55;19.90;;;16.40;;
18544;SDS011;9402;51.460;7.276;2023-05-07T05:10:58;21.00;;;18.40;;
18544;SDS011;9402;51.460;7.276;2023-05-07T05:12:59;17.40;;;15.60;;
18544;SDS011;9402;51.460;7.276;2023-05-07T05:15:01;18.83;;;15.33;;
18544;SDS011;9402;51.460;7.276;2023-05-07T05:17:03;17.57;;;15.43;;
18544;SDS011;9402;51.460;7.276;2023-05-07T05:19:05;18.73;;;16.13;;
18544;SDS011;9402;51.460;7.276;2023-05-07T05:21:06;20.73;;;13.80;;
18544;SDS011;9402;51.460;7.276;2023-05-07T05:23:08;15.20;;;13.67;;
18544;SDS011;9402;51.460;7.276;2023-05-07T05:25:09;17.80;;;12.53;;
18544;SDS011;9402;51.460;7.276;2023-05-07T05:27:12;14.43;;;13.10;;
18544;SDS011;9402;51.460;7.276;2023-05-07T05:29:14;16.30;;;13.13;;
18544;SDS011;9402;51.460;7.276;2023-05-07T05:31:15;16.10;;;13.13;;
18544;SDS011;9402;51.460;7.276;2023-05-07T05:33:17;16.37;;;11.87;;
18544;SDS011;9402;51.460;7.276;2023-05-07T05:35:18;15.53;;;13.93;;
18544;SDS011;9402;51.460;7.276;2023-05-07T05:37:20;13.60;;;12.20;;
18544;SDS011;9402;51.460;7.276;2023-05-07T05:39:22;14.30;;;11.50;;
18544;SDS011;9402;51.460;7.276;2023-05-07T05:41:23;14.80;;;10.13;;
18544;SDS011;9402;51.460;7.276;2023-05-07T05:43:26;10.37;;;9.37;;
18544;SDS011;9402;51.460;7.276;2023-05-07T05:45:28;9.23;;;8.33;;
18544;SDS011;9402;51.460;7.276;2023-05-07T05:47:29;14.40;;;8.87;;
18544;SDS011;9402;51.460;7.276;2023-05-07T05:49:31;9.20;;;8.30;;
18544;SDS011;9402;51.460;7.276;2023-05-07T05:51:32;10.47;;;8.20;;
18544;SDS011;9402;51.460;7.276;2023-05-07T05:53:34;11.23;;;8.80;;
18544;SDS011;9402;51.460;7.276;2023-05-07T05:55:35;9.50;;;8.53;;
18544;SDS011;9402;51.460;7.276;2023-05-07T05:57:37;8.43;;;7.60;;
18544;SDS011;9402;51.460;7.276;2023-05-07T05:59:40;8.00;;;7.20;;
18544;SDS011;9402;51.460;7.276;2023-05-07T06:01:42;8.47;;;7.03;;
18544;SDS011;9402;51.460;7.276;2023-05-07T06:03:44;10.70;;;7.83;;
18544;SDS011;9402;51.460;7.276;2023-05-07T06:05:45;9.30;;;7.13;;
18544;SDS011;9402;51.460;7.276;2023-05-07T06:07:47;7.97;;;6.37;;
18544;SDS011;9402;51.460;7.276;2023-05-07T06:09:48;8.00;;;6.13;;
18544;SDS011;9402;51.460;7.276;2023-05-07T06:11:50;8.33;;;5.77;;
18544;SDS011;9402;51.460;7.276;2023-05-07T06:13:51;5.90;;;5.40;;
18544;SDS011;9402;51.460;7.276;2023-05-07T06:15:54;5.80;;;5.20;;
18544;SDS011;9402;51.460;7.276;2023-05-07T06:17:56;5.57;;;5.07;;
18544;SDS011;9402;51.460;7.276;2023-05-07T06:19:57;4.90;;;4.60;;
18544;SDS011;9402;51.460;7.276;2023-05-07T06:21:59;5.83;;;4.80;;
18544;SDS011;9402;51.460;7.276;2023-05-07T06:24:02;10.03;;;5.30;;
18544;SDS011;9402;51.460;7.276;2023-05-07T06:26:04;6.03;;;5.50;;
18544;SDS011;9402;51.460;7.276;2023-05-07T06:28:05;4.87;;;4.47;;
18544;SDS011;9402;51.460;7.276;2023-05-07T06:30:08;6.43;;;4.93;;
18544;SDS011;9402;51.460;7.276;2023-05-07T06:32:12;5.67;;;4.40;;
18544;SDS011;9402;51.460;7.276;2023-05-07T06:34:14;6.50;;;4.33;;
18544;SDS011;9402;51.460;7.276;2023-05-07T06:36:15;5.40;;;3.80;;
18544;SDS011;9402;51.460;7.276;2023-05-07T06:38:17;5.13;;;4.70;;
18544;SDS011;9402;51.460;7.276;2023-05-07T06:40:19;5.13;;;4.00;;
18544;SDS011;9402;51.460;7.276;2023-05-07T06:42:20;4.50;;;4.10;;
18544;SDS011;9402;51.460;7.276;2023-05-07T06:44:22;4.07;;;3.77;;
18544;SDS011;9402;51.460;7.276;2023-05-07T06:46:24;5.93;;;3.70;;
18544;SDS011;9402;51.460;7.276;2023-05-07T06:48:26;13.63;;;4.30;;
18544;SDS011;9402;51.460;7.276;2023-05-07T06:50:28;7.13;;;4.17;;
18544;SDS011;9402;51.460;7.276;2023-05-07T06:52:30;6.40;;;3.70;;
18544;SDS011;9402;51.460;7.276;2023-05-07T06:54:31;7.23;;;3.70;;
18544;SDS011;9402;51.460;7.276;2023-05-07T06:56:33;4.87;;;3.47;;
18544;SDS011;9402;51.460;7.276;2023-05-07T06:58:35;4.47;;;3.83;;
18544;SDS011;9402;51.460;7.276;2023-05-07T07:00:36;14.23;;;3.93;;
18544;SDS011;9402;51.460;7.276;2023-05-07T07:02:38;4.40;;;3.80;;
18544;SDS011;9402;51.460;7.276;2023-05-07T07:04:41;5.03;;;3.50;;
18544;SDS011;9402;51.460;7.276;2023-05-07T07:06:42;3.90;;;3.60;;
18544;SDS011;9402;51.460;7.276;2023-05-07T07:08:44;8.17;;;4.20;;
18544;SDS011;9402;51.460;7.276;2023-05-07T07:10:45;7.30;;;4.50;;
18544;SDS011;9402;51.460;7.276;2023-05-07T07:12:47;3.67;;;3.07;;
18544;SDS011;9402;51.460;7.276;2023-05-07T07:14:49;3.47;;;3.17;;
18544;SDS011;9402;51.460;7.276;2023-05-07T07:16:51;4.50;;;3.53;;
18544;SDS011;9402;51.460;7.276;2023-05-07T07:18:52;3.60;;;3.30;;
18544;SDS011;9402;51.460;7.276;2023-05-07T07:20:55;4.77;;;2.80;;
18544;SDS011;9402;51.460;7.276;2023-05-07T07:22:57;4.43;;;2.57;;
18544;SDS011;9402;51.460;7.276;2023-05-07T07:24:59;4.73;;;3.40;;
18544;SDS011;9402;51.460;7.276;2023-05-07T07:27:01;5.17;;;2.90;;
18544;SDS011;9402;51.460;7.276;2023-05-07T07:29:02;8.83;;;2.60;;
18544;SDS011;9402;51.460;7.276;2023-05-07T07:31:04;2.33;;;2.13;;
18544;SDS011;9402;51.460;7.276;2023-05-07T07:33:05;3.10;;;2.80;;
18544;SDS011;9402;51.460;7.276;2023-05-07T07:35:07;4.50;;;2.77;;
18544;SDS011;9402;51.460;7.276;2023-05-07T07:37:11;3.03;;;2.73;;
18544;SDS011;9402;51.460;7.276;2023-05-07T07:39:12;5.27;;;2.83;;
18544;SDS011;9402;51.460;7.276;2023-05-07T07:41:14;4.27;;;2.47;;
18544;SDS011;9402;51.460;7.276;2023-05-07T07:43:16;2.50;;;2.40;;
18544;SDS011;9402;51.460;7.276;2023-05-07T07:45:17;3.87;;;2.23;;
18544;SDS011;9402;51.460;7.276;2023-05-07T07:47:19;3.20;;;2.43;;
18544;SDS011;9402;51.460;7.276;2023-05-07T07:49:20;4.70;;;2.23;;
18544;SDS011;9402;51.460;7.276;2023-05-07T07:51:22;2.10;;;1.90;;
18544;SDS011;9402;51.460;7.276;2023-05-07T07:53:25;7.57;;;2.27;;
18544;SDS011;9402;51.460;7.276;2023-05-07T07:55:27;2.17;;;1.93;;
18544;SDS011;9402;51.460;7.276;2023-05-07T07:57:28;5.13;;;2.30;;
18544;SDS011;9402;51.460;7.276;2023-05-07T07:59:30;3.80;;;2.73;;
18544;SDS011;9402;51.460;7.276;2023-05-07T08:01:32;2.57;;;2.37;;
18544;SDS011;9402;51.460;7.276;2023-05-07T08:03:33;2.27;;;2.07;;
18544;SDS011;9402;51.460;7.276;2023-05-07T08:05:35;5.03;;;2.63;;
18544;SDS011;9402;51.460;7.276;2023-05-07T08:07:38;3.93;;;2.23;;
18544;SDS011;9402;51.460;7.276;2023-05-07T08:09:41;4.17;;;2.50;;
18544;SDS011;9402;51.460;7.276;2023-05-07T08:11:42;3.67;;;2.37;;
18544;SDS011;9402;51.460;7.276;2023-05-07T08:13:44;2.73;;;2.40;;
18544;SDS011;9402;51.460;7.276;2023-05-07T08:15:46;4.00;;;2.63;;
18544;SDS011;9402;51.460;7.276;2023-05-07T08:17:48;3.23;;;2.70;;
18544;SDS011;9402;51.460;7.276;2023-05-07T08:19:49;3.43;;;2.60;;
18544;SDS011;9402;51.460;7.276;2023-05-07T08:21:51;2.57;;;2.37;;
18544;SDS011;9402;51.460;7.276;2023-05-07T08:23:52;4.30;;;2.53;;
18544;SDS011;9402;51.460;7.276;2023-05-07T08:25:55;3.40;;;2.70;;
18544;SDS011;9402;51.460;7.276;2023-05-07T08:27:57;2.60;;;2.40;;
18544;SDS011;9402;51.460;7.276;2023-05-07T08:29:59;6.67;;;3.43;;
18544;SDS011;9402;51.460;7.276;2023-05-07T08:32:00;3.57;;;3.27;;
18544;SDS011;9402;51.460;7.276;2023-05-07T08:34:02;4.60;;;3.67;;
18544;SDS011;9402;51.460;7.276;2023-05-07T08:36:04;6.10;;;3.80;;
18544;SDS011;9402;51.460;7.276;2023-05-07T08:38:06;8.57;;;4.40;;
18544;SDS011;9402;51.460;7.276;2023-05-07T08:40:08;6.33;;;4.33;;
18544;SDS011;9402;51.460;7.276;2023-05-07T08:42:11;4.60;;;3.80;;
18544;SDS011;9402;51.460;7.276;2023-05-07T08:44:14;5.40;;;4.80;;
18544;SDS011;9402;51.460;7.276;2023-05-07T08:46:17;5.57;;;4.53;;
18544;SDS011;9402;51.460;7.276;2023-05-07T08:48:21;5.53;;;4.80;;
18544;SDS011;9402;51.460;7.276;2023-05-07T08:50:23;6.80;;;4.50;;
18544;SDS011;9402;51.460;7.276;2023-05-07T08:52:25;5.10;;;4.60;;
18544;SDS011;9402;51.460;7.276;2023-05-07T08:54:28;6.30;;;4.30;;
18544;SDS011;9402;51.460;7.276;2023-05-07T08:56:30;4.40;;;4.10;;
18544;SDS011;9402;51.460;7.276;2023-05-07T08:58:33;11.23;;;4.30;;
18544;SDS011;9402;51.460;7.276;2023-05-07T09:00:35;3.97;;;3.57;;
18544;SDS011;9402;51.460;7.276;2023-05-07T09:02:37;4.77;;;3.30;;
18544;SDS011;9402;51.460;7.276;2023-05-07T09:04:39;4.20;;;3.77;;
18544;SDS011;9402;51.460;7.276;2023-05-07T09:06:40;5.30;;;3.70;;
18544;SDS011;9402;51.460;7.276;2023-05-07T09:08:44;7.40;;;3.47;;
18544;SDS011;9402;51.460;7.276;2023-05-07T09:10:51;6.23;;;3.70;;
18544;SDS011;9402;51.460;7.276;2023-05-07T09:12:53;5.10;;;3.30;;
18544;SDS011;9402;51.460;7.276;2023-05-07T09:14:56;4.60;;;3.00;;
18544;SDS011;9402;51.460;7.276;2023-05-07T09:16:58;6.13;;;4.33;;
18544;SDS011;9402;51.460;7.276;2023-05-07T09:18:59;8.23;;;4.33;;
18544;SDS011;9402;51.460;7.276;2023-05-07T09:21:01;7.27;;;4.57;;
18544;SDS011;9402;51.460;7.276;2023-05-07T09:23:03;3.97;;;3.60;;
18544;SDS011;9402;51.460;7.276;2023-05-07T09:25:05;5.87;;;3.80;;
18544;SDS011;9402;51.460;7.276;2023-05-07T09:27:07;4.40;;;4.00;;
18544;SDS011;9402;51.460;7.276;2023-05-07T09:29:13;4.97;;;4.40;;
18544;SDS011;9402;51.460;7.276;2023-05-07T09:31:18;10.30;;;4.40;;
18544;SDS011;9402;51.460;7.276;2023-05-07T09:33:20;4.10;;;3.60;;
18544;SDS011;9402;51.460;7.276;2023-05-07T09:35:21;7.47;;;4.70;;
18544;SDS011;9402;51.460;7.276;2023-05-07T09:37:25;4.50;;;4.10;;
18544;SDS011;9402;51.460;7.276;2023-05-07T09:39:26;6.40;;;5.20;;
18544;SDS011;9402;51.460;7.276;2023-05-07T09:41:43;8.00;;;5.77;;
18544;SDS011;9402;51.460;7.276;2023-05-07T09:43:45;7.10;;;6.40;;
18544;SDS011;9402;51.460;7.276;2023-05-07T09:45:46;12.57;;;6.20;;
18544;SDS011;9402;51.460;7.276;2023-05-07T09:47:53;6.40;;;5.77;;
18544;SDS011;9402;51.460;7.276;2023-05-07T09:49:56;10.27;;;6.80;;
18544;SDS011;9402;51.460;7.276;2023-05-07T09:51:59;6.80;;;5.77;;
18544;SDS011;9402;51.460;7.276;2023-05-07T09:54:01;10.87;;;6.47;;
18544;SDS011;9402;51.460;7.276;2023-05-07T09:56:04;7.83;;;5.90;;
18544;SDS011;9402;51.460;7.276;2023-05-07T09:58:06;12.53;;;6.77;;
18544;SDS011;9402;51.460;7.276;2023-05-07T10:00:08;12.00;;;6.80;;
18544;SDS011;9402;51.460;7.276;2023-05-07T10:02:10;15.23;;;6.57;;
18544;SDS011;9402;51.460;7.276;2023-05-07T10:04:13;8.50;;;7.30;;
18544;SDS011;9402;51.460;7.276;2023-05-07T10:06:15;8.83;;;5.93;;
18544;SDS011;9402;51.460;7.276;2023-05-07T10:08:17;7.27;;;6.60;;
18544;SDS011;9402;51.460;7.276;2023-05-07T10:10:20;6.97;;;6.13;;
18544;SDS011;9402;51.460;7.276;2023-05-07T10:12:22;13.60;;;7.87;;
18544;SDS011;9402;51.460;7.276;2023-05-07T10:14:24;8.90;;;6.33;;
18544;SDS011;9402;51.460;7.276;2023-05-07T10:16:26;8.67;;;6.03;;
18544;SDS011;9402;51.460;7.276;2023-05-07T10:18:28;6.87;;;4.77;;
18544;SDS011;9402;51.460;7.276;2023-05-07T10:20:34;7.27;;;5.50;;
18544;SDS011;9402;51.460;7.276;2023-05-07T10:22:38;9.73;;;5.13;;
18544;SDS011;9402;51.460;7.276;2023-05-07T10:24:42;6.97;;;5.90;;
18544;SDS011;9402;51.460;7.276;2023-05-07T10:26:47;6.43;;;5.00;;
18544;SDS011;9402;51.460;7.276;2023-05-07T10:28:50;5.10;;;4.03;;
18544;SDS011;9402;51.460;7.276;2023-05-07T10:30:58;4.10;;;3.80;;
18544;SDS011;9402;51.460;7.276;2023-05-07T10:33:04;8.77;;;4.80;;
18544;SDS011;9402;51.460;7.276;2023-05-07T10:35:09;7.57;;;4.30;;
18544;SDS011;9402;51.460;7.276;2023-05-07T10:37:16;3.97;;;3.20;;
18544;SDS011;9402;51.460;7.276;2023-05-07T10:39:19;6.80;;;3.10;;
18544;SDS011;9402;51.460;7.276;2023-05-07T10:41:21;4.77;;;3.47;;
18544;SDS011;9402;51.460;7.276;2023-05-07T10:43:23;10.90;;;5.40;;
18544;SDS011;9402;51.460;7.276;2023-05-07T10:45:25;3.87;;;3.53;;
18544;SDS011;9402;51.460;7.276;2023-05-07T10:47:27;5.27;;;3.37;;
18544;SDS011;9402;51.460;7.276;2023-05-07T10:49:28;3.63;;;3.33;;
18544;SDS011;9402;51.460;7.276;2023-05-07T10:51:30;7.23;;;5.30;;
18544;SDS011;9402;51.460;7.276;2023-05-07T10:53:33;7.33;;;4.10;;
18544;SDS011;9402;51.460;7.276;2023-05-07T10:55:35;6.03;;;3.90;;
18544;SDS011;9402;51.460;7.276;2023-05-07T10:57:36;6.97;;;4.70;;
18544;SDS011;9402;51.460;7.276;2023-05-07T10:59:38;6.07;;;3.90;;
18544;SDS011;9402;51.460;7.276;2023-05-07T11:01:52;4.00;;;3.70;;
18544;SDS011;9402;51.460;7.276;2023-05-07T11:06:15;4.03;;;3.50;;
18544;SDS011;9402;51.460;7.276;2023-05-07T11:08:17;6.43;;;4.70;;
18544;SDS011;9402;51.460;7.276;2023-05-07T11:10:20;9.10;;;5.53;;
18544;SDS011;9402;51.460;7.276;2023-05-07T11:14:47;6.07;;;5.47;;
18544;SDS011;9402;51.460;7.276;2023-05-07T11:16:49;5.50;;;5.00;;
18544;SDS011;9402;51.460;7.276;2023-05-07T11:19:03;5.90;;;5.07;;
18544;SDS011;9402;51.460;7.276;2023-05-07T11:21:05;13.07;;;5.60;;
18544;SDS011;9402;51.460;7.276;2023-05-07T11:23:07;5.33;;;4.83;;
18544;SDS011;9402;51.460;7.276;2023-05-07T11:25:08;7.40;;;5.17;;
18544;SDS011;9402;51.460;7.276;2023-05-07T11:27:11;8.47;;;5.87;;
18544;SDS011;9402;51.460;7.276;2023-05-07T11:29:14;10.80;;;6.07;;
18544;SDS011;9402;51.460;7.276;2023-05-07T11:31:19;7.90;;;6.00;;
18544;SDS011;9402;51.460;7.276;2023-05-07T11:33:22;6.83;;;6.13;;
18544;SDS011;9402;51.460;7.276;2023-05-07T11:35:25;6.57;;;5.90;;
18544;SDS011;9402;51.460;7.276;2023-05-07T11:37:27;10.07;;;6.90;;
18544;SDS011;9402;51.460;7.276;2023-05-07T11:39:30;9.37;;;7.07;;
18544;SDS011;9402;51.460;7.276;2023-05-07T11:41:33;7.57;;;6.70;;
18544;SDS011;9402;51.460;7.276;2023-05-07T11:43:37;7.13;;;5.90;;
18544;SDS011;9402;51.460;7.276;2023-05-07T11:45:40;11.20;;;7.50;;
18544;SDS011;9402;51.460;7.276;2023-05-07T11:47:41;9.53;;;6.63;;
18544;SDS011;9402;51.460;7.276;2023-05-07T11:49:43;9.97;;;6.60;;
18544;SDS011;9402;51.460;7.276;2023-05-07T11:51:47;8.73;;;6.63;;
18544;SDS011;9402;51.460;7.276;2023-05-07T11:53:49;9.00;;;7.57;;
18544;SDS011;9402;51.460;7.276;2023-05-07T11:55:51;10.73;;;6.00;;
18544;SDS011;9402;51.460;7.276;2023-05-07T11:57:53;8.87;;;6.03;;
18544;SDS011;9402;51.460;7.276;2023-05-07T11:59:56;6.63;;;5.60;;
18544;SDS011;9402;51.460;7.276;2023-05-07T12:01:58;6.90;;;6.07;;
18544;SDS011;9402;51.460;7.276;2023-05-07T12:04:00;10.23;;;7.47;;
18544;SDS011;9402;51.460;7.276;2023-05-07T12:06:05;9.30;;;6.70;;
18544;SDS011;9402;51.460;7.276;2023-05-07T12:08:07;9.63;;;6.70;;
18544;SDS011;9402;51.460;7.276;2023-05-07T12:10:09;7.10;;;6.40;;
18544;SDS011;9402;51.460;7.276;2023-05-07T12:12:12;8.43;;;6.83;;
18544;SDS011;9402;51.460;7.276;2023-05-07T12:14:15;10.17;;;8.20;;
18544;SDS011;9402;51.460;7.276;2023-05-07T12:16:18;8.40;;;5.90;;
18544;SDS011;9402;51.460;7.276;2023-05-07T12:18:20;7.90;;;7.10;;
18544;SDS011;9402;51.460;7.276;2023-05-07T12:20:23;9.37;;;7.13;;
18544;SDS011;9402;51.460;7.276;2023-05-07T12:22:24;7.87;;;6.77;;
18544;SDS011;9402;51.460;7.276;2023-05-07T12:24:26;6.90;;;5.80;;
18544;SDS011;9402;51.460;7.276;2023-05-07T12:26:27;11.77;;;7.00;;